sensor_id;sensor_type;location;lat;lon;timestamp;pressure;altitude;pressure_sealevel;temperature;humidity
77299;BME280;66361;52.034;20.656;2023-06-22T00:02:19;99907.00;;;17.83;100.00
77299;BME280;66361;52.034;20.656;2023-06-22T00:06:24;99907.41;;;17.88;100.00
77299;BME280;66361;52.034;20.656;2023-06-22T00:10:26;99901.41;;;17.86;100.00
77299;BME280;66361;52.034;20.656;2023-06-22T00:14:30;99904.91;;;17.87;100.00
77299;BME280;66361;52.034;20.656;2023-06-22T00:18:33;99911.53;;;17.83;100.00
77299;BME280;66361;52.034;20.656;2023-06-22T00:22:37;99905.47;;;17.90;100.00
77299;BME280;66361;52.034;20.656;2023-06-22T00:26:40;99909.78;;;17.91;100.00
77299;BME280;66361;52.034;20.656;2023-06-22T00:30:43;99906.75;;;17.86;100.00
77299;BME280;66361;52.034;20.656;2023-06-22T00:34:47;99900.78;;;17.92;100.00
77299;BME280;66361;52.034;20.656;2023-06-22T00:38:54;99906.13;;;17.92;100.00
77299;BME280;66361;52.034;20.656;2023-06-22T00:42:58;99903.88;;;17.98;100.00
77299;BME280;66361;52.034;20.656;2023-06-22T00:47:01;99895.38;;;18.02;100.00
77299;BME280;66361;52.034;20.656;2023-06-22T00:51:05;99883.72;;;18.03;100.00
77299;BME280;66361;52.034;20.656;2023-06-22T00:55:10;99887.19;;;18.13;100.00
77299;BME280;66361;52.034;20.656;2023-06-22T00:59:13;99877.31;;;18.14;100.00
77299;BME280;66361;52.034;20.656;2023-06-22T01:03:19;99879.63;;;18.09;100.00
77299;BME280;66361;52.034;20.656;2023-06-22T01:07:36;99887.09;;;18.05;100.00
77299;BME280;66361;52.034;20.656;2023-06-22T01:11:45;99873.25;;;17.92;100.00
77299;BME280;66361;52.034;20.656;2023-06-22T01:15:58;99880.06;;;18.04;100.00
77299;BME280;66361;52.034;20.656;2023-06-22T01:20:04;99885.94;;;18.08;100.00
77299;BME280;66361;52.034;20.656;2023-06-22T01:24:15;99891.06;;;18.01;100.00
77299;BME280;66361;52.034;20.656;2023-06-22T01:32:50;99882.41;;;17.89;100.00
77299;BME280;66361;52.034;20.656;2023-06-22T01:36:56;99883.09;;;17.91;100.00
77299;BME280;66361;52.034;20.656;2023-06-22T01:41:01;99888.97;;;17.95;100.00
77299;BME280;66361;52.034;20.656;2023-06-22T01:45:05;99890.78;;;17.95;100.00
77299;BME280;66361;52.034;20.656;2023-06-22T01:49:11;99905.38;;;18.00;100.00
77299;BME280;66361;52.034;20.656;2023-06-22T01:53:15;99910.13;;;18.06;100.00
77299;BME280;66361;52.034;20.656;2023-06-22T01:57:18;99922.47;;;18.17;100.00
77299;BME280;66361;52.034;20.656;2023-06-22T02:01:26;99923.75;;;18.30;100.00
77299;BME280;66361;52.034;20.656;2023-06-22T02:05:36;99935.84;;;18.52;100.00
77299;BME280;66361;52.034;20.656;2023-06-22T02:09:42;99933.81;;;18.64;100.00
77299;BME280;66361;52.034;20.656;2023-06-22T02:13:47;99924.03;;;18.72;100.00
77299;BME280;66361;52.034;20.656;2023-06-22T02:17:51;99938.47;;;18.79;100.00
77299;BME280;66361;52.034;20.656;2023-06-22T02:21:56;99945.09;;;18.93;100.00
77299;BME280;66361;52.034;20.656;2023-06-22T02:25:59;99942.34;;;19.03;100.00
77299;BME280;66361;52.034;20.656;2023-06-22T02:30:03;99955.63;;;19.12;100.00
77299;BME280;66361;52.034;20.656;2023-06-22T02:34:06;99971.88;;;19.19;100.00
77299;BME280;66361;52.034;20.656;2023-06-22T02:38:12;99975.63;;;19.26;100.00
77299;BME280;66361;52.034;20.656;2023-06-22T02:42:16;99971.63;;;19.30;100.00
77299;BME280;66361;52.034;20.656;2023-06-22T02:46:22;99977.22;;;19.37;100.00
77299;BME280;66361;52.034;20.656;2023-06-22T02:50:25;99979.91;;;19.37;100.00
77299;BME280;66361;52.034;20.656;2023-06-22T02:54:31;99987.09;;;19.36;100.00
77299;BME280;66361;52.034;20.656;2023-06-22T02:58:34;99997.09;;;19.34;100.00
77299;BME280;66361;52.034;20.656;2023-06-22T03:02:40;100001.78;;;19.32;100.00
77299;BME280;66361;52.034;20.656;2023-06-22T03:06:43;99992.75;;;19.33;100.00
77299;BME280;66361;52.034;20.656;2023-06-22T03:10:54;100005.81;;;19.36;100.00
77299;BME280;66361;52.034;20.656;2023-06-22T03:14:58;99995.97;;;19.37;100.00
77299;BME280;66361;52.034;20.656;2023-06-22T03:19:01;99994.09;;;19.37;100.00
77299;BME280;66361;52.034;20.656;2023-06-22T03:23:03;99987.94;;;19.37;100.00
77299;BME280;66361;52.034;20.656;2023-06-22T03:27:08;99998.63;;;19.37;100.00
77299;BME280;66361;52.034;20.656;2023-06-22T03:31:11;100008.72;;;19.43;100.00
77299;BME280;66361;52.034;20.656;2023-06-22T03:35:14;100017.50;;;19.53;100.00
77299;BME280;66361;52.034;20.656;2023-06-22T03:39:18;100027.59;;;19.59;100.00
77299;BME280;66361;52.034;20.656;2023-06-22T03:43:23;100026.13;;;19.64;100.00
77299;BME280;66361;52.034;20.656;2023-06-22T03:47:26;100037.59;;;19.74;100.00
77299;BME280;66361;52.034;20.656;2023-06-22T03:51:30;100037.47;;;19.84;100.00
77299;BME280;66361;52.034;20.656;2023-06-22T03:55:34;100045.88;;;19.89;100.00
77299;BME280;66361;52.034;20.656;2023-06-22T03:59:38;100046.22;;;19.94;100.00
77299;BME280;66361;52.034;20.656;2023-06-22T04:03:41;100048.31;;;20.08;100.00
77299;BME280;66361;52.034;20.656;2023-06-22T04:07:44;100044.16;;;20.14;100.00
77299;BME280;66361;52.034;20.656;2023-06-22T04:11:47;100048.38;;;20.16;100.00
77299;BME280;66361;52.034;20.656;2023-06-22T04:15:51;100055.94;;;20.21;100.00
77299;BME280;66361;52.034;20.656;2023-06-22T04:19:54;100062.50;;;20.26;100.00
77299;BME280;66361;52.034;20.656;2023-06-22T04:23:57;100056.97;;;20.28;100.00
77299;BME280;66361;52.034;20.656;2023-06-22T04:28:01;100060.69;;;20.35;100.00
77299;BME280;66361;52.034;20.656;2023-06-22T04:32:08;100061.69;;;20.34;100.00
77299;BME280;66361;52.034;20.656;2023-06-22T04:36:11;100068.31;;;20.48;100.00
77299;BME280;66361;52.034;20.656;2023-06-22T04:40:15;100063.97;;;20.55;100.00
77299;BME280;66361;52.034;20.656;2023-06-22T04:44:18;100053.34;;;20.79;100.00
77299;BME280;66361;52.034;20.656;2023-06-22T04:48:27;100055.91;;;20.97;100.00
77299;BME280;66361;52.034;20.656;2023-06-22T04:52:34;100054.25;;;21.20;100.00
77299;BME280;66361;52.034;20.656;2023-06-22T04:56:38;100050.44;;;21.31;100.00
77299;BME280;66361;52.034;20.656;2023-06-22T05:00:42;100053.44;;;21.68;100.00
77299;BME280;66361;52.034;20.656;2023-06-22T05:04:47;100065.09;;;22.07;95.18
77299;BME280;66361;52.034;20.656;2023-06-22T05:08:54;100061.38;;;22.33;93.54
77299;BME280;66361;52.034;20.656;2023-06-22T05:12:59;100068.09;;;22.37;94.19
77299;BME280;66361;52.034;20.656;2023-06-22T05:17:02;100067.22;;;22.44;91.64
77299;BME280;66361;52.034;20.656;2023-06-22T05:21:18;100072.78;;;22.82;87.37
77299;BME280;66361;52.034;20.656;2023-06-22T05:25:21;100074.19;;;23.46;84.75
77299;BME280;66361;52.034;20.656;2023-06-22T05:29:26;100079.03;;;25.20;74.84
77299;BME280;66361;52.034;20.656;2023-06-22T05:33:29;100080.78;;;26.60;71.10
77299;BME280;66361;52.034;20.656;2023-06-22T05:37:33;100076.91;;;28.02;64.23
77299;BME280;66361;52.034;20.656;2023-06-22T05:41:37;100081.91;;;28.05;62.61
77299;BME280;66361;52.034;20.656;2023-06-22T05:45:40;100096.03;;;28.59;58.45
77299;BME280;66361;52.034;20.656;2023-06-22T05:49:43;100106.75;;;29.74;54.54
77299;BME280;66361;52.034;20.656;2023-06-22T05:53:48;100125.34;;;30.02;53.64
77299;BME280;66361;52.034;20.656;2023-06-22T05:57:52;100111.66;;;29.21;55.11
77299;BME280;66361;52.034;20.656;2023-06-22T06:01:55;100122.22;;;31.03;51.36
77299;BME280;66361;52.034;20.656;2023-06-22T06:05:58;100136.53;;;29.94;52.31
77299;BME280;66361;52.034;20.656;2023-06-22T06:10:07;100123.59;;;29.20;53.29
77299;BME280;66361;52.034;20.656;2023-06-22T06:14:10;100135.13;;;29.85;52.63
77299;BME280;66361;52.034;20.656;2023-06-22T06:18:13;100138.00;;;30.15;50.32
77299;BME280;66361;52.034;20.656;2023-06-22T06:22:16;100130.69;;;29.59;52.73
77299;BME280;66361;52.034;20.656;2023-06-22T06:26:21;100127.06;;;32.13;45.22
77299;BME280;66361;52.034;20.656;2023-06-22T06:30:29;100124.91;;;33.25;43.89
77299;BME280;66361;52.034;20.656;2023-06-22T06:34:39;100133.28;;;33.07;41.45
77299;BME280;66361;52.034;20.656;2023-06-22T06:38:42;100141.91;;;34.72;39.71
77299;BME280;66361;52.034;20.656;2023-06-22T06:42:47;100139.22;;;35.69;36.15
77299;BME280;66361;52.034;20.656;2023-06-22T06:46:51;100135.03;;;34.70;39.10
77299;BME280;66361;52.034;20.656;2023-06-22T06:50:58;100124.91;;;34.70;37.68
77299;BME280;66361;52.034;20.656;2023-06-22T06:55:01;100122.88;;;34.11;39.02
77299;BME280;66361;52.034;20.656;2023-06-22T06:59:07;100116.28;;;35.27;38.11
77299;BME280;66361;52.034;20.656;2023-06-22T07:03:10;100122.38;;;35.12;38.58
77299;BME280;66361;52.034;20.656;2023-06-22T07:07:13;100121.44;;;35.23;36.80
77299;BME280;66361;52.034;20.656;2023-06-22T07:11:17;100125.22;;;36.03;35.38
77299;BME280;66361;52.034;20.656;2023-06-22T07:15:27;100118.69;;;35.50;34.39
77299;BME280;66361;52.034;20.656;2023-06-22T07:19:30;100123.94;;;35.52;36.95
77299;BME280;66361;52.034;20.656;2023-06-22T07:23:33;100128.69;;;35.34;36.27
77299;BME280;66361;52.034;20.656;2023-06-22T07:27:37;100138.72;;;34.80;36.26
77299;BME280;66361;52.034;20.656;2023-06-22T07:31:42;100130.66;;;35.39;34.51
77299;BME280;66361;52.034;20.656;2023-06-22T07:35:46;100135.84;;;35.62;32.90
77299;BME280;66361;52.034;20.656;2023-06-22T07:39:50;100137.59;;;36.00;33.31
77299;BME280;66361;52.034;20.656;2023-06-22T07:43:55;100144.22;;;35.24;33.96
77299;BME280;66361;52.034;20.656;2023-06-22T07:47:59;100144.38;;;35.92;34.10
77299;BME280;66361;52.034;20.656;2023-06-22T07:52:02;100150.91;;;34.89;33.29
77299;BME280;66361;52.034;20.656;2023-06-22T07:56:11;100147.78;;;36.05;33.10
77299;BME280;66361;52.034;20.656;2023-06-22T08:00:20;100144.00;;;35.52;33.73
77299;BME280;66361;52.034;20.656;2023-06-22T08:04:25;100153.59;;;36.45;33.96
77299;BME280;66361;52.034;20.656;2023-06-22T08:08:29;100149.59;;;37.10;29.34
77299;BME280;66361;52.034;20.656;2023-06-22T08:12:32;100147.75;;;36.31;32.72
77299;BME280;66361;52.034;20.656;2023-06-22T08:16:42;100145.22;;;36.62;31.29
77299;BME280;66361;52.034;20.656;2023-06-22T08:20:47;100143.66;;;36.86;31.05
77299;BME280;66361;52.034;20.656;2023-06-22T08:24:51;100140.94;;;35.75;31.54
77299;BME280;66361;52.034;20.656;2023-06-22T08:28:54;100143.16;;;35.52;31.59
77299;BME280;66361;52.034;20.656;2023-06-22T08:32:57;100140.63;;;36.04;30.81
77299;BME280;66361;52.034;20.656;2023-06-22T08:37:01;100127.19;;;36.91;29.64
77299;BME280;66361;52.034;20.656;2023-06-22T08:41:09;100132.41;;;36.93;30.01
77299;BME280;66361;52.034;20.656;2023-06-22T08:45:12;100140.59;;;36.77;28.05
77299;BME280;66361;52.034;20.656;2023-06-22T08:49:16;100136.38;;;37.12;29.11
77299;BME280;66361;52.034;20.656;2023-06-22T08:53:20;100141.47;;;37.65;28.03
77299;BME280;66361;52.034;20.656;2023-06-22T08:57:23;100145.66;;;36.96;28.18
77299;BME280;66361;52.034;20.656;2023-06-22T09:01:26;100153.56;;;35.50;29.86
77299;BME280;66361;52.034;20.656;2023-06-22T09:05:29;100151.31;;;36.00;29.28
77299;BME280;66361;52.034;20.656;2023-06-22T09:09:34;100152.50;;;36.46;29.28
77299;BME280;66361;52.034;20.656;2023-06-22T09:13:37;100156.72;;;35.36;31.09
77299;BME280;66361;52.034;20.656;2023-06-22T09:17:40;100156.44;;;35.86;29.67
77299;BME280;66361;52.034;20.656;2023-06-22T09:21:44;100156.59;;;36.07;30.05
77299;BME280;66361;52.034;20.656;2023-06-22T09:25:48;100148.63;;;34.81;31.75
77299;BME280;66361;52.034;20.656;2023-06-22T09:29:51;100145.69;;;34.66;29.84
77299;BME280;66361;52.034;20.656;2023-06-22T09:33:55;100144.34;;;33.85;31.19
77299;BME280;66361;52.034;20.656;2023-06-22T09:37:58;100139.53;;;34.59;31.75
77299;BME280;66361;52.034;20.656;2023-06-22T09:42:03;100147.72;;;34.21;31.10
77299;BME280;66361;52.034;20.656;2023-06-22T09:46:07;100148.44;;;33.83;32.65
77299;BME280;66361;52.034;20.656;2023-06-22T09:50:11;100144.13;;;33.87;33.46
77299;BME280;66361;52.034;20.656;2023-06-22T09:54:14;100148.84;;;34.41;32.12
77299;BME280;66361;52.034;20.656;2023-06-22T09:58:20;100137.16;;;33.23;29.39
77299;BME280;66361;52.034;20.656;2023-06-22T10:02:23;100143.34;;;32.78;30.32
77299;BME280;66361;52.034;20.656;2023-06-22T10:06:28;100148.16;;;32.99;32.20
77299;BME280;66361;52.034;20.656;2023-06-22T10:10:30;100147.22;;;33.34;34.46
77299;BME280;66361;52.034;20.656;2023-06-22T10:14:35;100141.09;;;32.75;33.72
77299;BME280;66361;52.034;20.656;2023-06-22T10:18:38;100139.19;;;33.44;32.62
77299;BME280;66361;52.034;20.656;2023-06-22T10:22:43;100135.31;;;33.68;33.02
77299;BME280;66361;52.034;20.656;2023-06-22T10:26:46;100129.13;;;33.16;32.31
77299;BME280;66361;52.034;20.656;2023-06-22T10:30:51;100129.44;;;33.93;33.62
77299;BME280;66361;52.034;20.656;2023-06-22T10:34:54;100125.03;;;33.47;30.40
77299;BME280;66361;52.034;20.656;2023-06-22T10:39:00;100131.19;;;33.26;32.11
77299;BME280;66361;52.034;20.656;2023-06-22T10:43:04;100116.06;;;33.35;32.85
77299;BME280;66361;52.034;20.656;2023-06-22T10:47:08;100116.81;;;33.47;30.64
77299;BME280;66361;52.034;20.656;2023-06-22T10:51:12;100106.44;;;32.92;31.93
77299;BME280;66361;52.034;20.656;2023-06-22T10:55:18;100103.13;;;33.47;30.83
77299;BME280;66361;52.034;20.656;2023-06-22T10:59:21;100109.63;;;33.57;32.82
77299;BME280;66361;52.034;20.656;2023-06-22T11:03:26;100106.63;;;33.14;31.30
77299;BME280;66361;52.034;20.656;2023-06-22T11:07:30;100102.34;;;32.78;30.68
77299;BME280;66361;52.034;20.656;2023-06-22T11:11:34;100106.16;;;32.66;29.96
77299;BME280;66361;52.034;20.656;2023-06-22T11:15:37;100102.28;;;32.27;30.97
77299;BME280;66361;52.034;20.656;2023-06-22T11:19:45;100089.94;;;32.87;31.82
77299;BME280;66361;52.034;20.656;2023-06-22T11:23:48;100106.00;;;32.84;32.74
77299;BME280;66361;52.034;20.656;2023-06-22T11:27:53;100097.50;;;32.45;31.70
77299;BME280;66361;52.034;20.656;2023-06-22T11:31:56;100103.13;;;31.62;31.42
77299;BME280;66361;52.034;20.656;2023-06-22T11:36:01;100105.09;;;32.08;32.92
77299;BME280;66361;52.034;20.656;2023-06-22T11:40:05;100100.34;;;31.92;32.16
77299;BME280;66361;52.034;20.656;2023-06-22T11:44:11;100101.91;;;32.23;33.00
77299;BME280;66361;52.034;20.656;2023-06-22T11:48:14;100107.63;;;32.56;31.46
77299;BME280;66361;52.034;20.656;2023-06-22T11:52:19;100104.59;;;32.46;30.12
77299;BME280;66361;52.034;20.656;2023-06-22T11:56:22;100094.66;;;32.29;30.17
77299;BME280;66361;52.034;20.656;2023-06-22T12:00:25;100084.78;;;31.81;32.07
77299;BME280;66361;52.034;20.656;2023-06-22T12:04:31;100081.75;;;31.48;30.94
77299;BME280;66361;52.034;20.656;2023-06-22T12:08:36;100076.44;;;31.76;32.25
77299;BME280;66361;52.034;20.656;2023-06-22T12:12:41;100066.00;;;31.61;31.88
77299;BME280;66361;52.034;20.656;2023-06-22T12:16:44;100062.22;;;31.62;31.64
77299;BME280;66361;52.034;20.656;2023-06-22T12:20:47;100066.88;;;31.02;32.29
77299;BME280;66361;52.034;20.656;2023-06-22T12:24:52;100059.38;;;31.39;32.21
77299;BME280;66361;52.034;20.656;2023-06-22T12:28:55;100055.28;;;31.48;32.96
77299;BME280;66361;52.034;20.656;2023-06-22T12:32:58;100058.16;;;31.65;32.00
77299;BME280;66361;52.034;20.656;2023-06-22T12:37:01;100058.31;;;31.29;33.24
77299;BME280;66361;52.034;20.656;2023-06-22T12:41:05;100068.81;;;31.13;32.70
77299;BME280;66361;52.034;20.656;2023-06-22T12:45:11;100075.53;;;31.11;34.27
77299;BME280;66361;52.034;20.656;2023-06-22T12:49:14;100073.13;;;31.33;34.22
77299;BME280;66361;52.034;20.656;2023-06-22T12:53:17;100063.13;;;31.27;32.22
77299;BME280;66361;52.034;20.656;2023-06-22T12:57:22;100060.06;;;31.23;33.90
77299;BME280;66361;52.034;20.656;2023-06-22T13:01:25;100054.56;;;31.11;33.51
77299;BME280;66361;52.034;20.656;2023-06-22T13:05:28;100056.00;;;31.14;35.91
77299;BME280;66361;52.034;20.656;2023-06-22T13:09:32;100056.03;;;31.26;32.69
77299;BME280;66361;52.034;20.656;2023-06-22T13:13:40;100057.22;;;31.18;32.26
77299;BME280;66361;52.034;20.656;2023-06-22T13:17:44;100053.69;;;31.41;31.13
77299;BME280;66361;52.034;20.656;2023-06-22T13:21:47;100052.34;;;30.90;31.56
77299;BME280;66361;52.034;20.656;2023-06-22T13:25:50;100049.03;;;31.18;33.59
77299;BME280;66361;52.034;20.656;2023-06-22T13:29:54;100049.34;;;31.10;34.61
77299;BME280;66361;52.034;20.656;2023-06-22T13:33:57;100044.63;;;30.87;35.82
77299;BME280;66361;52.034;20.656;2023-06-22T13:38:01;100053.13;;;31.09;36.33
77299;BME280;66361;52.034;20.656;2023-06-22T13:42:05;100039.78;;;30.71;36.11
77299;BME280;66361;52.034;20.656;2023-06-22T13:46:10;100034.63;;;30.63;35.01
77299;BME280;66361;52.034;20.656;2023-06-22T13:50:13;100032.63;;;30.40;34.82
77299;BME280;66361;52.034;20.656;2023-06-22T13:54:16;100043.38;;;30.35;34.62
77299;BME280;66361;52.034;20.656;2023-06-22T13:58:23;100044.69;;;30.08;35.33
77299;BME280;66361;52.034;20.656;2023-06-22T14:02:27;100039.44;;;30.31;35.00
77299;BME280;66361;52.034;20.656;2023-06-22T14:06:30;100046.44;;;30.20;35.74
77299;BME280;66361;52.034;20.656;2023-06-22T14:10:33;100042.47;;;29.98;35.62
77299;BME280;66361;52.034;20.656;2023-06-22T14:14:36;100040.53;;;30.05;34.64
77299;BME280;66361;52.034;20.656;2023-06-22T14:18:41;100051.22;;;29.82;36.74
77299;BME280;66361;52.034;20.656;2023-06-22T14:22:44;100049.00;;;29.66;35.47
77299;BME280;66361;52.034;20.656;2023-06-22T14:26:47;100040.84;;;29.66;35.48
77299;BME280;66361;52.034;20.656;2023-06-22T14:30:50;100029.59;;;29.38;35.55
77299;BME280;66361;52.034;20.656;2023-06-22T14:34:54;100038.09;;;29.72;35.53
77299;BME280;66361;52.034;20.656;2023-06-22T14:38:59;100038.56;;;29.69;35.12
77299;BME280;66361;52.034;20.656;2023-06-22T14:43:02;100033.88;;;29.52;35.60
77299;BME280;66361;52.034;20.656;2023-06-22T14:47:06;100036.47;;;29.65;37.47
77299;BME280;66361;52.034;20.656;2023-06-22T14:51:11;100024.69;;;29.21;36.17
77299;BME280;66361;52.034;20.656;2023-06-22T14:55:17;100013.75;;;28.90;37.52
77299;BME280;66361;52.034;20.656;2023-06-22T14:59:20;100018.53;;;28.95;36.80
77299;BME280;66361;52.034;20.656;2023-06-22T15:03:23;100008.78;;;28.87;37.15
77299;BME280;66361;52.034;20.656;2023-06-22T15:07:30;100012.13;;;28.82;37.54
77299;BME280;66361;52.034;20.656;2023-06-22T15:11:33;100010.91;;;28.78;37.57
77299;BME280;66361;52.034;20.656;2023-06-22T15:15:37;100004.41;;;28.79;38.15
77299;BME280;66361;52.034;20.656;2023-06-22T15:19:40;100009.00;;;28.85;38.35
77299;BME280;66361;52.034;20.656;2023-06-22T15:23:44;100007.69;;;28.95;38.07
77299;BME280;66361;52.034;20.656;2023-06-22T15:27:47;100010.13;;;29.03;37.08
77299;BME280;66361;52.034;20.656;2023-06-22T15:31:51;100001.81;;;28.98;37.25
77299;BME280;66361;52.034;20.656;2023-06-22T15:35:54;100007.72;;;28.88;38.07
77299;BME280;66361;52.034;20.656;2023-06-22T15:39:59;100003.19;;;28.75;36.78
77299;BME280;66361;52.034;20.656;2023-06-22T15:44:02;100008.63;;;28.75;37.15
77299;BME280;66361;52.034;20.656;2023-06-22T15:48:05;100003.66;;;28.66;37.65
77299;BME280;66361;52.034;20.656;2023-06-22T15:52:08;100012.66;;;28.66;37.14
77299;BME280;66361;52.034;20.656;2023-06-22T15:56:13;100012.50;;;28.55;38.12
77299;BME280;66361;52.034;20.656;2023-06-22T16:00:17;100008.38;;;28.32;36.79
77299;BME280;66361;52.034;20.656;2023-06-22T16:04:20;99998.19;;;28.21;37.70
77299;BME280;66361;52.034;20.656;2023-06-22T16:08:23;100006.19;;;28.03;37.97
77299;BME280;66361;52.034;20.656;2023-06-22T16:12:28;100005.34;;;27.89;37.61
77299;BME280;66361;52.034;20.656;2023-06-22T16:16:32;99997.63;;;27.80;39.75
77299;BME280;66361;52.034;20.656;2023-06-22T16:20:35;99997.84;;;27.72;41.49
77299;BME280;66361;52.034;20.656;2023-06-22T16:24:38;100005.38;;;27.50;42.19
77299;BME280;66361;52.034;20.656;2023-06-22T16:28:44;100000.56;;;27.32;43.08
77299;BME280;66361;52.034;20.656;2023-06-22T16:32:51;99992.38;;;27.06;43.48
77299;BME280;66361;52.034;20.656;2023-06-22T16:36:55;100001.53;;;26.98;43.78
77299;BME280;66361;52.034;20.656;2023-06-22T16:40:59;99999.66;;;26.92;44.53
77299;BME280;66361;52.034;20.656;2023-06-22T16:45:05;100000.25;;;26.88;46.42
77299;BME280;66361;52.034;20.656;2023-06-22T16:49:08;99991.06;;;26.76;44.90
77299;BME280;66361;52.034;20.656;2023-06-22T16:53:11;99992.50;;;26.65;45.90
77299;BME280;66361;52.034;20.656;2023-06-22T16:57:14;99989.16;;;26.57;46.85
77299;BME280;66361;52.034;20.656;2023-06-22T17:01:21;99989.47;;;26.47;45.90
77299;BME280;66361;52.034;20.656;2023-06-22T17:05:26;99987.16;;;26.37;47.08
77299;BME280;66361;52.034;20.656;2023-06-22T17:09:29;99979.41;;;26.28;46.83
77299;BME280;66361;52.034;20.656;2023-06-22T17:13:34;99978.53;;;26.14;48.15
77299;BME280;66361;52.034;20.656;2023-06-22T17:17:40;99988.44;;;26.00;47.99
77299;BME280;66361;52.034;20.656;2023-06-22T17:21:43;99975.03;;;25.86;46.51
77299;BME280;66361;52.034;20.656;2023-06-22T17:25:51;99965.63;;;25.82;48.18
77299;BME280;66361;52.034;20.656;2023-06-22T17:30:13;99970.94;;;25.69;47.43
77299;BME280;66361;52.034;20.656;2023-06-22T17:34:21;99976.06;;;25.57;47.63
77299;BME280;66361;52.034;20.656;2023-06-22T17:38:25;99967.19;;;25.42;48.53
77299;BME280;66361;52.034;20.656;2023-06-22T17:42:29;99966.47;;;25.27;49.20
77299;BME280;66361;52.034;20.656;2023-06-22T17:46:36;99963.34;;;25.08;49.55
77299;BME280;66361;52.034;20.656;2023-06-22T17:50:42;99956.34;;;24.93;50.16
77299;BME280;66361;52.034;20.656;2023-06-22T17:54:45;99961.75;;;24.72;53.56
77299;BME280;66361;52.034;20.656;2023-06-22T17:58:52;99948.81;;;24.46;51.53
77299;BME280;66361;52.034;20.656;2023-06-22T18:02:56;99954.94;;;24.25;53.17
77299;BME280;66361;52.034;20.656;2023-06-22T18:07:02;99948.66;;;24.03;59.53
77299;BME280;66361;52.034;20.656;2023-06-22T18:11:07;99947.53;;;23.83;59.79
77299;BME280;66361;52.034;20.656;2023-06-22T18:15:11;99951.34;;;23.59;61.47
77299;BME280;66361;52.034;20.656;2023-06-22T18:19:15;99941.47;;;23.37;59.51
77299;BME280;66361;52.034;20.656;2023-06-22T18:23:20;99946.53;;;23.17;59.25
77299;BME280;66361;52.034;20.656;2023-06-22T18:27:25;99947.84;;;22.99;59.36
77299;BME280;66361;52.034;20.656;2023-06-22T18:31:29;99941.59;;;22.76;60.95
77299;BME280;66361;52.034;20.656;2023-06-22T18:35:33;99934.38;;;22.53;65.17
77299;BME280;66361;52.034;20.656;2023-06-22T18:39:38;99932.31;;;22.33;67.73
77299;BME280;66361;52.034;20.656;2023-06-22T18:43:42;99937.97;;;22.07;67.85
77299;BME280;66361;52.034;20.656;2023-06-22T18:47:55;99929.63;;;21.86;67.74
77299;BME280;66361;52.034;20.656;2023-06-22T18:52:03;99931.38;;;21.62;67.69
77299;BME280;66361;52.034;20.656;2023-06-22T18:56:14;99946.22;;;21.42;70.51
77299;BME280;66361;52.034;20.656;2023-06-22T19:00:18;99945.22;;;21.19;70.39
77299;BME280;66361;52.034;20.656;2023-06-22T19:04:32;99953.94;;;20.97;72.21
77299;BME280;66361;52.034;20.656;2023-06-22T19:09:14;99948.38;;;20.74;75.00
77299;BME280;66361;52.034;20.656;2023-06-22T19:13:26;99947.69;;;20.56;76.30
77299;BME280;66361;52.034;20.656;2023-06-22T19:17:29;99950.00;;;20.43;79.22
77299;BME280;66361;52.034;20.656;2023-06-22T19:21:34;99958.97;;;20.25;81.03
77299;BME280;66361;52.034;20.656;2023-06-22T19:25:45;99943.00;;;20.08;82.32
77299;BME280;66361;52.034;20.656;2023-06-22T19:29:52;99943.44;;;19.95;83.45
77299;BME280;66361;52.034;20.656;2023-06-22T19:34:00;99942.84;;;19.75;83.08
77299;BME280;66361;52.034;20.656;2023-06-22T19:38:03;99938.09;;;19.61;85.19
77299;BME280;66361;52.034;20.656;2023-06-22T19:42:07;99938.97;;;19.44;84.36
77299;BME280;66361;52.034;20.656;2023-06-22T19:46:12;99932.88;;;19.34;87.20
77299;BME280;66361;52.034;20.656;2023-06-22T19:50:15;99923.78;;;19.27;88.21
77299;BME280;66361;52.034;20.656;2023-06-22T19:54:18;99928.03;;;19.12;89.37
77299;BME280;66361;52.034;20.656;2023-06-22T19:58:22;99923.25;;;18.98;89.66
77299;BME280;66361;52.034;20.656;2023-06-22T20:02:28;99930.84;;;18.84;90.37
77299;BME280;66361;52.034;20.656;2023-06-22T20:06:33;99923.34;;;18.70;91.17
77299;BME280;66361;52.034;20.656;2023-06-22T20:10:37;99924.28;;;18.61;92.24
77299;BME280;66361;52.034;20.656;2023-06-22T20:14:41;99909.13;;;18.52;92.80
77299;BME280;66361;52.034;20.656;2023-06-22T20:18:46;99912.00;;;18.41;93.75
77299;BME280;66361;52.034;20.656;2023-06-22T20:22:50;99909.69;;;18.28;94.30
77299;BME280;66361;52.034;20.656;2023-06-22T20:26:53;99902.22;;;18.14;95.21
77299;BME280;66361;52.034;20.656;2023-06-22T20:31:04;99907.44;;;18.06;95.58
77299;BME280;66361;52.034;20.656;2023-06-22T20:35:09;99905.28;;;17.92;95.53
77299;BME280;66361;52.034;20.656;2023-06-22T20:39:15;99911.06;;;17.87;96.77
77299;BME280;66361;52.034;20.656;2023-06-22T20:43:18;99915.44;;;17.88;97.72
77299;BME280;66361;52.034;20.656;2023-06-22T20:47:23;99902.81;;;17.81;97.04
77299;BME280;66361;52.034;20.656;2023-06-22T20:51:28;99888.53;;;17.72;97.40
77299;BME280;66361;52.034;20.656;2023-06-22T20:55:36;99885.25;;;17.61;96.63
77299;BME280;66361;52.034;20.656;2023-06-22T20:59:40;99887.22;;;17.49;98.11
77299;BME280;66361;52.034;20.656;2023-06-22T21:03:43;99882.31;;;17.44;98.75
77299;BME280;66361;52.034;20.656;2023-06-22T21:07:49;99887.53;;;17.36;100.00